sensor_id;sensor_type;location;lat;lon;timestamp;P1;durP1;ratioP1;P2;durP2;ratioP2
2896;SDS011;1458;49.728;9.228;2023-03-01T00:01:15;1.87;;;1.87;;
2896;SDS011;1458;49.728;9.228;2023-03-01T00:03:45;1.90;;;1.90;;
2896;SDS011;1458;49.728;9.228;2023-03-01T00:06:13;1.80;;;1.80;;
2896;SDS011;1458;49.728;9.228;2023-03-01T00:08:42;1.90;;;1.90;;
2896;SDS011;1458;49.728;9.228;2023-03-01T00:11:10;1.80;;;1.80;;
2896;SDS011;1458;49.728;9.228;2023-03-01T00:13:40;1.77;;;1.77;;
2896;SDS011;1458;49.728;9.228;2023-03-01T00:16:10;1.80;;;1.80;;
2896;SDS011;1458;49.728;9.228;2023-03-01T00:18:39;1.80;;;1.80;;
2896;SDS011;1458;49.728;9.228;2023-03-01T00:21:06;1.80;;;1.80;;
2896;SDS011;1458;49.728;9.228;2023-03-01T00:23:36;1.80;;;1.80;;
2896;SDS011;1458;49.728;9.228;2023-03-01T00:26:07;1.80;;;1.80;;
2896;SDS011;1458;49.728;9.228;2023-03-01T00:28:38;1.80;;;1.80;;
2896;SDS011;1458;49.728;9.228;2023-03-01T00:31:08;1.70;;;1.70;;
2896;SDS011;1458;49.728;9.228;2023-03-01T00:33:38;1.60;;;1.60;;
2896;SDS011;1458;49.728;9.228;2023-03-01T00:36:06;1.50;;;1.50;;
2896;SDS011;1458;49.728;9.228;2023-03-01T00:38:34;1.80;;;1.80;;
2896;SDS011;1458;49.728;9.228;2023-03-01T00:41:03;1.80;;;1.80;;
2896;SDS011;1458;49.728;9.228;2023-03-01T00:43:32;1.80;;;1.80;;
2896;SDS011;1458;49.728;9.228;2023-03-01T00:46:02;1.60;;;1.60;;
2896;SDS011;1458;49.728;9.228;2023-03-01T00:48:29;1.60;;;1.60;;
2896;SDS011;1458;49.728;9.228;2023-03-01T00:50:57;1.50;;;1.50;;
2896;SDS011;1458;49.728;9.228;2023-03-01T00:53:32;1.50;;;1.50;;
2896;SDS011;1458;49.728;9.228;2023-03-01T00:55:59;1.50;;;1.50;;
2896;SDS011;1458;49.728;9.228;2023-03-01T00:58:29;1.60;;;1.60;;
2896;SDS011;1458;49.728;9.228;2023-03-01T01:00:56;1.60;;;1.60;;
2896;SDS011;1458;49.728;9.228;2023-03-01T01:03:24;1.50;;;1.50;;
2896;SDS011;1458;49.728;9.228;2023-03-01T01:05:51;1.70;;;1.70;;
2896;SDS011;1458;49.728;9.228;2023-03-01T01:08:19;1.70;;;1.70;;
2896;SDS011;1458;49.728;9.228;2023-03-01T01:10:47;1.53;;;1.53;;
2896;SDS011;1458;49.728;9.228;2023-03-01T01:13:15;1.77;;;1.77;;
2896;SDS011;1458;49.728;9.228;2023-03-01T01:15:43;1.57;;;1.57;;
2896;SDS011;1458;49.728;9.228;2023-03-01T01:18:11;1.70;;;1.70;;
2896;SDS011;1458;49.728;9.228;2023-03-01T01:20:38;1.70;;;1.70;;
2896;SDS011;1458;49.728;9.228;2023-03-01T01:23:05;1.60;;;1.60;;
2896;SDS011;1458;49.728;9.228;2023-03-01T01:25:34;1.70;;;1.70;;
2896;SDS011;1458;49.728;9.228;2023-03-01T01:28:02;1.50;;;1.50;;
2896;SDS011;1458;49.728;9.228;2023-03-01T01:30:30;1.50;;;1.50;;
2896;SDS011;1458;49.728;9.228;2023-03-01T01:32:59;1.50;;;1.50;;
2896;SDS011;1458;49.728;9.228;2023-03-01T01:35:27;1.60;;;1.60;;
2896;SDS011;1458;49.728;9.228;2023-03-01T01:37:57;1.53;;;1.53;;
2896;SDS011;1458;49.728;9.228;2023-03-01T01:40:26;1.63;;;1.63;;
2896;SDS011;1458;49.728;9.228;2023-03-01T01:42:54;1.60;;;1.60;;
2896;SDS011;1458;49.728;9.228;2023-03-01T01:45:26;1.50;;;1.50;;
2896;SDS011;1458;49.728;9.228;2023-03-01T01:48:02;1.60;;;1.60;;
2896;SDS011;1458;49.728;9.228;2023-03-01T01:50:33;1.70;;;1.70;;
2896;SDS011;1458;49.728;9.228;2023-03-01T01:53:10;1.60;;;1.60;;
2896;SDS011;1458;49.728;9.228;2023-03-01T01:55:43;1.50;;;1.50;;
2896;SDS011;1458;49.728;9.228;2023-03-01T01:58:15;1.70;;;1.70;;
2896;SDS011;1458;49.728;9.228;2023-03-01T02:00:48;1.70;;;1.70;;
2896;SDS011;1458;49.728;9.228;2023-03-01T02:03:19;1.70;;;1.70;;
2896;SDS011;1458;49.728;9.228;2023-03-01T02:05:56;1.77;;;1.77;;
2896;SDS011;1458;49.728;9.228;2023-03-01T02:08:33;1.80;;;1.80;;
2896;SDS011;1458;49.728;9.228;2023-03-01T02:11:04;1.70;;;1.70;;
2896;SDS011;1458;49.728;9.228;2023-03-01T02:13:33;1.80;;;1.80;;
2896;SDS011;1458;49.728;9.228;2023-03-01T02:16:02;1.50;;;1.50;;
2896;SDS011;1458;49.728;9.228;2023-03-01T02:18:33;1.70;;;1.70;;
2896;SDS011;1458;49.728;9.228;2023-03-01T02:21:05;1.80;;;1.80;;
2896;SDS011;1458;49.728;9.228;2023-03-01T02:23:47;1.70;;;1.70;;
2896;SDS011;1458;49.728;9.228;2023-03-01T02:26:17;1.70;;;1.70;;
2896;SDS011;1458;49.728;9.228;2023-03-01T02:28:52;1.60;;;1.60;;
2896;SDS011;1458;49.728;9.228;2023-03-01T02:31:20;1.73;;;1.73;;
2896;SDS011;1458;49.728;9.228;2023-03-01T02:34:06;1.60;;;1.60;;
2896;SDS011;1458;49.728;9.228;2023-03-01T02:36:36;1.80;;;1.80;;
2896;SDS011;1458;49.728;9.228;2023-03-01T02:39:07;1.80;;;1.80;;
2896;SDS011;1458;49.728;9.228;2023-03-01T02:41:44;1.80;;;1.80;;
2896;SDS011;1458;49.728;9.228;2023-03-01T02:44:16;1.80;;;1.80;;
2896;SDS011;1458;49.728;9.228;2023-03-01T02:46:44;1.80;;;1.80;;
2896;SDS011;1458;49.728;9.228;2023-03-01T02:49:18;1.67;;;1.67;;
2896;SDS011;1458;49.728;9.228;2023-03-01T02:51:54;1.80;;;1.80;;
2896;SDS011;1458;49.728;9.228;2023-03-01T02:54:39;1.70;;;1.70;;
2896;SDS011;1458;49.728;9.228;2023-03-01T02:57:12;1.77;;;1.77;;
2896;SDS011;1458;49.728;9.228;2023-03-01T02:59:41;1.80;;;1.80;;
2896;SDS011;1458;49.728;9.228;2023-03-01T03:02:18;1.80;;;1.80;;
2896;SDS011;1458;49.728;9.228;2023-03-01T03:05:06;1.80;;;1.80;;
2896;SDS011;1458;49.728;9.228;2023-03-01T03:07:38;1.90;;;1.90;;
2896;SDS011;1458;49.728;9.228;2023-03-01T03:10:10;1.80;;;1.80;;
2896;SDS011;1458;49.728;9.228;2023-03-01T03:12:41;1.80;;;1.80;;
2896;SDS011;1458;49.728;9.228;2023-03-01T03:15:10;1.77;;;1.77;;
2896;SDS011;1458;49.728;9.228;2023-03-01T03:17:38;1.80;;;1.80;;
2896;SDS011;1458;49.728;9.228;2023-03-01T03:20:08;1.80;;;1.80;;
2896;SDS011;1458;49.728;9.228;2023-03-01T03:22:38;1.80;;;1.80;;
2896;SDS011;1458;49.728;9.228;2023-03-01T03:25:06;1.80;;;1.80;;
2896;SDS011;1458;49.728;9.228;2023-03-01T03:27:38;1.80;;;1.80;;
2896;SDS011;1458;49.728;9.228;2023-03-01T03:30:12;1.83;;;1.83;;
2896;SDS011;1458;49.728;9.228;2023-03-01T03:32:42;2.00;;;2.00;;
2896;SDS011;1458;49.728;9.228;2023-03-01T03:35:18;1.83;;;1.83;;
2896;SDS011;1458;49.728;9.228;2023-03-01T03:37:47;1.70;;;1.70;;
2896;SDS011;1458;49.728;9.228;2023-03-01T03:40:32;1.90;;;1.90;;
2896;SDS011;1458;49.728;9.228;2023-03-01T03:43:05;1.90;;;1.90;;
2896;SDS011;1458;49.728;9.228;2023-03-01T03:45:36;2.03;;;2.03;;
2896;SDS011;1458;49.728;9.228;2023-03-01T03:48:04;1.90;;;1.90;;
2896;SDS011;1458;49.728;9.228;2023-03-01T03:50:34;2.00;;;2.00;;
2896;SDS011;1458;49.728;9.228;2023-03-01T03:53:02;1.90;;;1.90;;
2896;SDS011;1458;49.728;9.228;2023-03-01T03:55:32;1.90;;;1.90;;
2896;SDS011;1458;49.728;9.228;2023-03-01T03:58:01;2.00;;;2.00;;
2896;SDS011;1458;49.728;9.228;2023-03-01T04:00:32;1.90;;;1.90;;
2896;SDS011;1458;49.728;9.228;2023-03-01T04:03:02;1.90;;;1.90;;
2896;SDS011;1458;49.728;9.228;2023-03-01T04:05:30;1.90;;;1.90;;
2896;SDS011;1458;49.728;9.228;2023-03-01T04:07:58;1.90;;;1.90;;
2896;SDS011;1458;49.728;9.228;2023-03-01T04:10:33;1.80;;;1.80;;
2896;SDS011;1458;49.728;9.228;2023-03-01T04:13:02;1.90;;;1.90;;
2896;SDS011;1458;49.728;9.228;2023-03-01T04:15:30;1.90;;;1.90;;
2896;SDS011;1458;49.728;9.228;2023-03-01T04:17:58;1.90;;;1.90;;
2896;SDS011;1458;49.728;9.228;2023-03-01T04:20:28;1.80;;;1.80;;
2896;SDS011;1458;49.728;9.228;2023-03-01T04:22:59;2.00;;;2.00;;
2896;SDS011;1458;49.728;9.228;2023-03-01T04:25:39;2.00;;;2.00;;
2896;SDS011;1458;49.728;9.228;2023-03-01T04:28:08;1.90;;;1.90;;
2896;SDS011;1458;49.728;9.228;2023-03-01T04:30:36;2.00;;;2.00;;
2896;SDS011;1458;49.728;9.228;2023-03-01T04:33:04;1.90;;;1.90;;
2896;SDS011;1458;49.728;9.228;2023-03-01T04:35:34;1.80;;;1.80;;
2896;SDS011;1458;49.728;9.228;2023-03-01T04:38:03;1.80;;;1.80;;
2896;SDS011;1458;49.728;9.228;2023-03-01T04:40:31;1.70;;;1.70;;
2896;SDS011;1458;49.728;9.228;2023-03-01T04:42:59;1.80;;;1.80;;
2896;SDS011;1458;49.728;9.228;2023-03-01T04:45:29;1.70;;;1.70;;
2896;SDS011;1458;49.728;9.228;2023-03-01T04:47:59;1.70;;;1.70;;
2896;SDS011;1458;49.728;9.228;2023-03-01T04:50:27;1.60;;;1.60;;
2896;SDS011;1458;49.728;9.228;2023-03-01T04:52:56;1.50;;;1.50;;
2896;SDS011;1458;49.728;9.228;2023-03-01T04:55:27;1.60;;;1.60;;
2896;SDS011;1458;49.728;9.228;2023-03-01T04:57:56;1.60;;;1.60;;
2896;SDS011;1458;49.728;9.228;2023-03-01T05:00:24;1.60;;;1.60;;
2896;SDS011;1458;49.728;9.228;2023-03-01T05:02:52;1.50;;;1.50;;
2896;SDS011;1458;49.728;9.228;2023-03-01T05:05:21;1.50;;;1.50;;
2896;SDS011;1458;49.728;9.228;2023-03-01T05:07:52;1.50;;;1.50;;
2896;SDS011;1458;49.728;9.228;2023-03-01T05:10:23;1.60;;;1.60;;
2896;SDS011;1458;49.728;9.228;2023-03-01T05:12:51;1.50;;;1.50;;
2896;SDS011;1458;49.728;9.228;2023-03-01T05:15:19;1.80;;;1.80;;
2896;SDS011;1458;49.728;9.228;2023-03-01T05:17:50;1.70;;;1.70;;
2896;SDS011;1458;49.728;9.228;2023-03-01T05:20:18;1.70;;;1.70;;
2896;SDS011;1458;49.728;9.228;2023-03-01T05:22:48;1.70;;;1.70;;
2896;SDS011;1458;49.728;9.228;2023-03-01T05:25:17;1.70;;;1.70;;
2896;SDS011;1458;49.728;9.228;2023-03-01T05:27:46;1.67;;;1.67;;
2896;SDS011;1458;49.728;9.228;2023-03-01T05:30:16;1.70;;;1.70;;
2896;SDS011;1458;49.728;9.228;2023-03-01T05:32:44;1.63;;;1.63;;
2896;SDS011;1458;49.728;9.228;2023-03-01T05:35:14;1.97;;;1.97;;
2896;SDS011;1458;49.728;9.228;2023-03-01T05:37:44;1.60;;;1.60;;
2896;SDS011;1458;49.728;9.228;2023-03-01T05:40:14;1.60;;;1.60;;
2896;SDS011;1458;49.728;9.228;2023-03-01T05:42:45;1.50;;;1.50;;
2896;SDS011;1458;49.728;9.228;2023-03-01T05:45:14;1.60;;;1.60;;
2896;SDS011;1458;49.728;9.228;2023-03-01T05:47:44;1.60;;;1.60;;
2896;SDS011;1458;49.728;9.228;2023-03-01T05:50:13;1.70;;;1.70;;
2896;SDS011;1458;49.728;9.228;2023-03-01T05:52:44;1.70;;;1.70;;
2896;SDS011;1458;49.728;9.228;2023-03-01T05:55:14;1.50;;;1.50;;
2896;SDS011;1458;49.728;9.228;2023-03-01T05:57:44;1.50;;;1.50;;
2896;SDS011;1458;49.728;9.228;2023-03-01T06:00:12;1.60;;;1.60;;
2896;SDS011;1458;49.728;9.228;2023-03-01T06:02:42;1.50;;;1.50;;
2896;SDS011;1458;49.728;9.228;2023-03-01T06:05:10;1.50;;;1.50;;
2896;SDS011;1458;49.728;9.228;2023-03-01T06:07:39;1.40;;;1.40;;
2896;SDS011;1458;49.728;9.228;2023-03-01T06:10:08;1.40;;;1.40;;
2896;SDS011;1458;49.728;9.228;2023-03-01T06:12:40;1.40;;;1.40;;
2896;SDS011;1458;49.728;9.228;2023-03-01T06:15:10;1.40;;;1.40;;
2896;SDS011;1458;49.728;9.228;2023-03-01T06:17:39;1.40;;;1.40;;
2896;SDS011;1458;49.728;9.228;2023-03-01T06:20:11;1.40;;;1.40;;
2896;SDS011;1458;49.728;9.228;2023-03-01T06:22:41;1.40;;;1.40;;
2896;SDS011;1458;49.728;9.228;2023-03-01T06:25:10;1.40;;;1.40;;
2896;SDS011;1458;49.728;9.228;2023-03-01T06:27:40;1.20;;;1.20;;
2896;SDS011;1458;49.728;9.228;2023-03-01T06:30:09;1.30;;;1.30;;
2896;SDS011;1458;49.728;9.228;2023-03-01T06:32:39;1.40;;;1.40;;
2896;SDS011;1458;49.728;9.228;2023-03-01T06:35:08;1.30;;;1.30;;
2896;SDS011;1458;49.728;9.228;2023-03-01T06:37:36;1.30;;;1.30;;
2896;SDS011;1458;49.728;9.228;2023-03-01T06:40:05;1.40;;;1.40;;
2896;SDS011;1458;49.728;9.228;2023-03-01T06:42:36;1.40;;;1.40;;
2896;SDS011;1458;49.728;9.228;2023-03-01T06:45:06;1.40;;;1.40;;
2896;SDS011;1458;49.728;9.228;2023-03-01T06:47:35;1.40;;;1.40;;
2896;SDS011;1458;49.728;9.228;2023-03-01T06:50:02;1.40;;;1.40;;
2896;SDS011;1458;49.728;9.228;2023-03-01T06:52:33;1.40;;;1.40;;
2896;SDS011;1458;49.728;9.228;2023-03-01T06:55:01;1.60;;;1.60;;
2896;SDS011;1458;49.728;9.228;2023-03-01T06:57:29;1.50;;;1.50;;
2896;SDS011;1458;49.728;9.228;2023-03-01T06:59:56;1.70;;;1.70;;
2896;SDS011;1458;49.728;9.228;2023-03-01T07:02:25;1.60;;;1.60;;
2896;SDS011;1458;49.728;9.228;2023-03-01T07:04:52;1.50;;;1.50;;
2896;SDS011;1458;49.728;9.228;2023-03-01T07:07:20;1.50;;;1.50;;
2896;SDS011;1458;49.728;9.228;2023-03-01T07:09:48;1.50;;;1.50;;
2896;SDS011;1458;49.728;9.228;2023-03-01T07:12:16;1.50;;;1.50;;
2896;SDS011;1458;49.728;9.228;2023-03-01T07:14:43;1.60;;;1.60;;
2896;SDS011;1458;49.728;9.228;2023-03-01T07:17:11;1.50;;;1.50;;
2896;SDS011;1458;49.728;9.228;2023-03-01T07:19:39;1.60;;;1.60;;
2896;SDS011;1458;49.728;9.228;2023-03-01T07:22:07;1.50;;;1.50;;
2896;SDS011;1458;49.728;9.228;2023-03-01T07:24:34;1.60;;;1.60;;
2896;SDS011;1458;49.728;9.228;2023-03-01T07:27:02;1.60;;;1.60;;
2896;SDS011;1458;49.728;9.228;2023-03-01T07:29:29;1.60;;;1.60;;
2896;SDS011;1458;49.728;9.228;2023-03-01T07:31:57;1.60;;;1.60;;
2896;SDS011;1458;49.728;9.228;2023-03-01T07:34:24;1.60;;;1.60;;
2896;SDS011;1458;49.728;9.228;2023-03-01T07:36:53;1.60;;;1.60;;
2896;SDS011;1458;49.728;9.228;2023-03-01T07:39:23;1.50;;;1.50;;
2896;SDS011;1458;49.728;9.228;2023-03-01T07:41:51;1.60;;;1.60;;
2896;SDS011;1458;49.728;9.228;2023-03-01T07:44:21;1.60;;;1.60;;
2896;SDS011;1458;49.728;9.228;2023-03-01T07:46:48;1.70;;;1.70;;
2896;SDS011;1458;49.728;9.228;2023-03-01T07:49:17;1.60;;;1.60;;
2896;SDS011;1458;49.728;9.228;2023-03-01T07:51:45;1.70;;;1.70;;
2896;SDS011;1458;49.728;9.228;2023-03-01T07:54:14;1.50;;;1.50;;
2896;SDS011;1458;49.728;9.228;2023-03-01T07:56:41;1.60;;;1.60;;
2896;SDS011;1458;49.728;9.228;2023-03-01T07:59:08;1.50;;;1.50;;
2896;SDS011;1458;49.728;9.228;2023-03-01T08:01:36;1.50;;;1.50;;
2896;SDS011;1458;49.728;9.228;2023-03-01T08:04:03;1.50;;;1.50;;
2896;SDS011;1458;49.728;9.228;2023-03-01T08:06:33;1.40;;;1.40;;
2896;SDS011;1458;49.728;9.228;2023-03-01T08:09:01;1.40;;;1.40;;
2896;SDS011;1458;49.728;9.228;2023-03-01T08:11:30;1.50;;;1.50;;
2896;SDS011;1458;49.728;9.228;2023-03-01T08:13:57;1.50;;;1.50;;
2896;SDS011;1458;49.728;9.228;2023-03-01T08:16:24;1.53;;;1.53;;
2896;SDS011;1458;49.728;9.228;2023-03-01T08:18:52;1.90;;;1.90;;
2896;SDS011;1458;49.728;9.228;2023-03-01T08:21:21;1.53;;;1.53;;
2896;SDS011;1458;49.728;9.228;2023-03-01T08:23:49;1.60;;;1.60;;
2896;SDS011;1458;49.728;9.228;2023-03-01T08:26:17;1.50;;;1.50;;
2896;SDS011;1458;49.728;9.228;2023-03-01T08:28:48;1.60;;;1.60;;
2896;SDS011;1458;49.728;9.228;2023-03-01T08:31:17;1.60;;;1.60;;
2896;SDS011;1458;49.728;9.228;2023-03-01T08:33:47;1.60;;;1.60;;
2896;SDS011;1458;49.728;9.228;2023-03-01T08:36:20;1.60;;;1.60;;
2896;SDS011;1458;49.728;9.228;2023-03-01T08:38:48;1.63;;;1.63;;
2896;SDS011;1458;49.728;9.228;2023-03-01T08:41:18;1.80;;;1.80;;
2896;SDS011;1458;49.728;9.228;2023-03-01T08:43:47;2.00;;;2.00;;
2896;SDS011;1458;49.728;9.228;2023-03-01T08:46:15;1.90;;;1.90;;
2896;SDS011;1458;49.728;9.228;2023-03-01T08:48:42;2.13;;;2.13;;
2896;SDS011;1458;49.728;9.228;2023-03-01T08:51:11;2.40;;;2.40;;
2896;SDS011;1458;49.728;9.228;2023-03-01T08:53:41;2.90;;;2.90;;
2896;SDS011;1458;49.728;9.228;2023-03-01T08:56:09;3.07;;;3.07;;
2896;SDS011;1458;49.728;9.228;2023-03-01T08:58:37;3.00;;;3.00;;
2896;SDS011;1458;49.728;9.228;2023-03-01T09:01:10;3.50;;;3.50;;
2896;SDS011;1458;49.728;9.228;2023-03-01T09:03:40;4.50;;;4.50;;
2896;SDS011;1458;49.728;9.228;2023-03-01T09:06:08;4.97;;;4.97;;
2896;SDS011;1458;49.728;9.228;2023-03-01T09:08:38;4.30;;;4.30;;
2896;SDS011;1458;49.728;9.228;2023-03-01T09:11:08;4.57;;;4.57;;
2896;SDS011;1458;49.728;9.228;2023-03-01T09:13:38;5.40;;;5.40;;
2896;SDS011;1458;49.728;9.228;2023-03-01T09:16:06;5.97;;;5.97;;
2896;SDS011;1458;49.728;9.228;2023-03-01T09:18:36;6.20;;;6.20;;
2896;SDS011;1458;49.728;9.228;2023-03-01T09:21:04;6.80;;;6.70;;
2896;SDS011;1458;49.728;9.228;2023-03-01T09:23:39;6.80;;;6.70;;
2896;SDS011;1458;49.728;9.228;2023-03-01T09:26:10;6.90;;;6.80;;
2896;SDS011;1458;49.728;9.228;2023-03-01T09:28:41;6.77;;;6.67;;
2896;SDS011;1458;49.728;9.228;2023-03-01T09:31:10;6.87;;;6.77;;
2896;SDS011;1458;49.728;9.228;2023-03-01T09:33:42;7.00;;;6.90;;
2896;SDS011;1458;49.728;9.228;2023-03-01T09:36:13;7.60;;;7.50;;
2896;SDS011;1458;49.728;9.228;2023-03-01T09:38:43;7.83;;;7.73;;
2896;SDS011;1458;49.728;9.228;2023-03-01T09:41:14;7.20;;;7.10;;
2896;SDS011;1458;49.728;9.228;2023-03-01T09:44:00;7.90;;;7.80;;
2896;SDS011;1458;49.728;9.228;2023-03-01T09:46:37;8.20;;;8.10;;
2896;SDS011;1458;49.728;9.228;2023-03-01T09:49:10;8.60;;;8.50;;
2896;SDS011;1458;49.728;9.228;2023-03-01T09:51:43;8.53;;;8.43;;
2896;SDS011;1458;49.728;9.228;2023-03-01T09:54:21;8.63;;;8.53;;
2896;SDS011;1458;49.728;9.228;2023-03-01T09:56:53;9.20;;;9.00;;
2896;SDS011;1458;49.728;9.228;2023-03-01T09:59:37;9.20;;;9.00;;
2896;SDS011;1458;49.728;9.228;2023-03-01T10:02:27;9.30;;;9.10;;
2896;SDS011;1458;49.728;9.228;2023-03-01T10:05:09;9.80;;;9.60;;
2896;SDS011;1458;49.728;9.228;2023-03-01T10:07:54;9.53;;;9.33;;
2896;SDS011;1458;49.728;9.228;2023-03-01T10:10:42;9.50;;;9.30;;
2896;SDS011;1458;49.728;9.228;2023-03-01T10:13:14;9.70;;;9.50;;
2896;SDS011;1458;49.728;9.228;2023-03-01T10:15:47;9.30;;;9.10;;
2896;SDS011;1458;49.728;9.228;2023-03-01T10:18:21;9.40;;;9.20;;
2896;SDS011;1458;49.728;9.228;2023-03-01T10:20:57;9.60;;;9.40;;
2896;SDS011;1458;49.728;9.228;2023-03-01T10:23:28;10.17;;;9.97;;
2896;SDS011;1458;49.728;9.228;2023-03-01T10:26:11;10.00;;;9.80;;
2896;SDS011;1458;49.728;9.228;2023-03-01T10:28:54;10.60;;;10.40;;
2896;SDS011;1458;49.728;9.228;2023-03-01T10:31:32;10.70;;;10.47;;
2896;SDS011;1458;49.728;9.228;2023-03-01T10:34:09;10.60;;;10.40;;
2896;SDS011;1458;49.728;9.228;2023-03-01T10:36:45;10.60;;;10.40;;
2896;SDS011;1458;49.728;9.228;2023-03-01T10:39:17;10.40;;;10.20;;
2896;SDS011;1458;49.728;9.228;2023-03-01T10:44:47;10.17;;;9.97;;
2896;SDS011;1458;49.728;9.228;2023-03-01T10:47:17;10.60;;;10.40;;
2896;SDS011;1458;49.728;9.228;2023-03-01T10:49:54;10.87;;;10.57;;
2896;SDS011;1458;49.728;9.228;2023-03-01T10:52:29;11.00;;;10.70;;
2896;SDS011;1458;49.728;9.228;2023-03-01T10:55:04;10.50;;;10.30;;
2896;SDS011;1458;49.728;9.228;2023-03-01T10:58:05;10.50;;;10.30;;
2896;SDS011;1458;49.728;9.228;2023-03-01T11:00:45;10.63;;;10.43;;
2896;SDS011;1458;49.728;9.228;2023-03-01T11:03:17;10.37;;;10.17;;
2896;SDS011;1458;49.728;9.228;2023-03-01T11:05:56;10.73;;;10.53;;
2896;SDS011;1458;49.728;9.228;2023-03-01T11:08:33;10.70;;;10.50;;
2896;SDS011;1458;49.728;9.228;2023-03-01T11:11:11;11.10;;;10.80;;
2896;SDS011;1458;49.728;9.228;2023-03-01T11:13:50;11.20;;;10.90;;
2896;SDS011;1458;49.728;9.228;2023-03-01T11:16:27;11.40;;;11.10;;
2896;SDS011;1458;49.728;9.228;2023-03-01T11:19:00;11.40;;;11.10;;
2896;SDS011;1458;49.728;9.228;2023-03-01T11:21:44;11.20;;;10.90;;
2896;SDS011;1458;49.728;9.228;2023-03-01T11:24:23;11.40;;;11.10;;
2896;SDS011;1458;49.728;9.228;2023-03-01T11:27:01;11.00;;;10.70;;
2896;SDS011;1458;49.728;9.228;2023-03-01T11:29:35;11.47;;;11.17;;
2896;SDS011;1458;49.728;9.228;2023-03-01T11:32:07;11.70;;;11.40;;
2896;SDS011;1458;49.728;9.228;2023-03-01T11:34:39;11.37;;;11.07;;
2896;SDS011;1458;49.728;9.228;2023-03-01T11:37:20;11.70;;;11.40;;
2896;SDS011;1458;49.728;9.228;2023-03-01T11:40:01;11.30;;;11.00;;
2896;SDS011;1458;49.728;9.228;2023-03-01T11:42:42;11.40;;;11.10;;
2896;SDS011;1458;49.728;9.228;2023-03-01T11:45:30;11.70;;;11.40;;
2896;SDS011;1458;49.728;9.228;2023-03-01T11:48:14;11.50;;;11.20;;
2896;SDS011;1458;49.728;9.228;2023-03-01T11:51:13;11.60;;;11.30;;
2896;SDS011;1458;49.728;9.228;2023-03-01T11:53:55;11.40;;;11.10;;
2896;SDS011;1458;49.728;9.228;2023-03-01T11:56:48;11.30;;;11.00;;
2896;SDS011;1458;49.728;9.228;2023-03-01T11:59:38;11.30;;;11.00;;
2896;SDS011;1458;49.728;9.228;2023-03-01T12:02:40;11.90;;;11.60;;
2896;SDS011;1458;49.728;9.228;2023-03-01T12:05:41;11.30;;;11.00;;
2896;SDS011;1458;49.728;9.228;2023-03-01T12:08:36;11.70;;;11.40;;
2896;SDS011;1458;49.728;9.228;2023-03-01T12:11:11;12.20;;;11.90;;
2896;SDS011;1458;49.728;9.228;2023-03-01T12:17:28;11.77;;;11.47;;
2896;SDS011;1458;49.728;9.228;2023-03-01T12:20:42;12.70;;;12.30;;
2896;SDS011;1458;49.728;9.228;2023-03-01T12:23:29;12.30;;;12.00;;
2896;SDS011;1458;49.728;9.228;2023-03-01T12:26:18;11.90;;;11.60;;
2896;SDS011;1458;49.728;9.228;2023-03-01T12:31:58;12.10;;;11.80;;
2896;SDS011;1458;49.728;9.228;2023-03-01T12:34:54;12.43;;;12.10;;
2896;SDS011;1458;49.728;9.228;2023-03-01T12:37:50;12.37;;;12.07;;
2896;SDS011;1458;49.728;9.228;2023-03-01T12:40:33;12.20;;;11.90;;
2896;SDS011;1458;49.728;9.228;2023-03-01T12:43:50;12.30;;;12.00;;
2896;SDS011;1458;49.728;9.228;2023-03-01T12:46:47;12.60;;;12.23;;
2896;SDS011;1458;49.728;9.228;2023-03-01T12:49:39;12.70;;;12.30;;
2896;SDS011;1458;49.728;9.228;2023-03-01T12:52:11;12.60;;;12.20;;
2896;SDS011;1458;49.728;9.228;2023-03-01T12:54:45;12.30;;;12.00;;
2896;SDS011;1458;49.728;9.228;2023-03-01T12:58:13;13.10;;;12.70;;
2896;SDS011;1458;49.728;9.228;2023-03-01T13:00:55;12.70;;;12.30;;
2896;SDS011;1458;49.728;9.228;2023-03-01T13:03:44;12.40;;;12.10;;
2896;SDS011;1458;49.728;9.228;2023-03-01T13:06:41;12.60;;;12.20;;
2896;SDS011;1458;49.728;9.228;2023-03-01T13:09:39;12.63;;;12.23;;
2896;SDS011;1458;49.728;9.228;2023-03-01T13:15:25;13.10;;;12.70;;
2896;SDS011;1458;49.728;9.228;2023-03-01T13:18:01;12.90;;;12.50;;
2896;SDS011;1458;49.728;9.228;2023-03-01T13:20:31;13.10;;;12.70;;
2896;SDS011;1458;49.728;9.228;2023-03-01T13:23:12;13.17;;;12.77;;
2896;SDS011;1458;49.728;9.228;2023-03-01T13:26:04;13.27;;;12.87;;
2896;SDS011;1458;49.728;9.228;2023-03-01T13:28:46;13.30;;;12.90;;
2896;SDS011;1458;49.728;9.228;2023-03-01T13:34:40;13.30;;;12.90;;
2896;SDS011;1458;49.728;9.228;2023-03-01T13:37:35;13.60;;;13.20;;
2896;SDS011;1458;49.728;9.228;2023-03-01T13:40:05;13.70;;;13.30;;
2896;SDS011;1458;49.728;9.228;2023-03-01T13:43:29;13.40;;;13.00;;
2896;SDS011;1458;49.728;9.228;2023-03-01T13:45:58;13.47;;;13.07;;
2896;SDS011;1458;49.728;9.228;2023-03-01T13:48:27;13.47;;;13.07;;
2896;SDS011;1458;49.728;9.228;2023-03-01T13:50:58;13.40;;;13.00;;
2896;SDS011;1458;49.728;9.228;2023-03-01T13:53:30;13.40;;;13.00;;
2896;SDS011;1458;49.728;9.228;2023-03-01T13:56:03;13.20;;;12.80;;
2896;SDS011;1458;49.728;9.228;2023-03-01T13:59:04;13.30;;;12.90;;
2896;SDS011;1458;49.728;9.228;2023-03-01T14:01:38;13.00;;;12.60;;
2896;SDS011;1458;49.728;9.228;2023-03-01T14:04:18;13.23;;;12.83;;
2896;SDS011;1458;49.728;9.228;2023-03-01T14:06:49;13.30;;;12.90;;
2896;SDS011;1458;49.728;9.228;2023-03-01T14:09:17;13.63;;;13.23;;
2896;SDS011;1458;49.728;9.228;2023-03-01T14:11:59;13.30;;;12.90;;
2896;SDS011;1458;49.728;9.228;2023-03-01T14:14:44;13.40;;;13.00;;
2896;SDS011;1458;49.728;9.228;2023-03-01T14:20:20;13.50;;;13.10;;
2896;SDS011;1458;49.728;9.228;2023-03-01T14:22:51;13.33;;;12.93;;
2896;SDS011;1458;49.728;9.228;2023-03-01T14:25:22;13.30;;;12.90;;
2896;SDS011;1458;49.728;9.228;2023-03-01T14:27:55;13.37;;;12.97;;
2896;SDS011;1458;49.728;9.228;2023-03-01T14:30:30;13.20;;;12.80;;
2896;SDS011;1458;49.728;9.228;2023-03-01T14:33:01;13.50;;;13.10;;
2896;SDS011;1458;49.728;9.228;2023-03-01T14:35:31;13.30;;;12.90;;
2896;SDS011;1458;49.728;9.228;2023-03-01T14:38:00;13.40;;;13.00;;
2896;SDS011;1458;49.728;9.228;2023-03-01T14:40:32;13.80;;;13.40;;
2896;SDS011;1458;49.728;9.228;2023-03-01T14:43:03;13.80;;;13.40;;
2896;SDS011;1458;49.728;9.228;2023-03-01T14:45:42;13.70;;;13.30;;
2896;SDS011;1458;49.728;9.228;2023-03-01T14:48:15;13.60;;;13.20;;
2896;SDS011;1458;49.728;9.228;2023-03-01T14:50:43;13.60;;;13.20;;
2896;SDS011;1458;49.728;9.228;2023-03-01T14:53:15;14.00;;;13.50;;
2896;SDS011;1458;49.728;9.228;2023-03-01T14:55:46;14.00;;;13.50;;
2896;SDS011;1458;49.728;9.228;2023-03-01T14:58:18;13.90;;;13.40;;
2896;SDS011;1458;49.728;9.228;2023-03-01T15:00:50;13.80;;;13.40;;
2896;SDS011;1458;49.728;9.228;2023-03-01T15:03:24;14.03;;;13.53;;
2896;SDS011;1458;49.728;9.228;2023-03-01T15:05:54;13.60;;;13.20;;
2896;SDS011;1458;49.728;9.228;2023-03-01T15:08:23;14.10;;;13.60;;
2896;SDS011;1458;49.728;9.228;2023-03-01T15:10:59;13.90;;;13.40;;
2896;SDS011;1458;49.728;9.228;2023-03-01T15:13:30;14.33;;;13.83;;
2896;SDS011;1458;49.728;9.228;2023-03-01T15:16:02;13.80;;;13.30;;
2896;SDS011;1458;49.728;9.228;2023-03-01T15:18:34;14.00;;;13.50;;
2896;SDS011;1458;49.728;9.228;2023-03-01T15:21:07;14.00;;;13.50;;
2896;SDS011;1458;49.728;9.228;2023-03-01T15:23:39;14.20;;;13.70;;
2896;SDS011;1458;49.728;9.228;2023-03-01T15:26:16;14.20;;;13.70;;
2896;SDS011;1458;49.728;9.228;2023-03-01T15:28:52;14.13;;;13.63;;
2896;SDS011;1458;49.728;9.228;2023-03-01T15:31:26;14.13;;;13.63;;
2896;SDS011;1458;49.728;9.228;2023-03-01T15:34:07;13.80;;;13.30;;
2896;SDS011;1458;49.728;9.228;2023-03-01T15:36:49;13.90;;;13.40;;
2896;SDS011;1458;49.728;9.228;2023-03-01T15:45:08;13.80;;;13.30;;
2896;SDS011;1458;49.728;9.228;2023-03-01T15:47:38;13.60;;;13.20;;
2896;SDS011;1458;49.728;9.228;2023-03-01T15:50:15;13.60;;;13.20;;
2896;SDS011;1458;49.728;9.228;2023-03-01T15:52:46;13.93;;;13.43;;
2896;SDS011;1458;49.728;9.228;2023-03-01T15:55:17;13.80;;;13.30;;
2896;SDS011;1458;49.728;9.228;2023-03-01T15:57:47;14.30;;;13.80;;
2896;SDS011;1458;49.728;9.228;2023-03-01T16:00:16;14.30;;;13.80;;
2896;SDS011;1458;49.728;9.228;2023-03-01T16:02:46;14.20;;;13.70;;
2896;SDS011;1458;49.728;9.228;2023-03-01T16:05:15;13.90;;;13.40;;
2896;SDS011;1458;49.728;9.228;2023-03-01T16:07:48;14.00;;;13.50;;